createdAt,value
2023-03-08T00:02:40.548Z,2.00
2023-03-08T00:07:43.279Z,2.00
2023-03-08T00:12:47.265Z,1.90
2023-03-08T00:17:50.063Z,1.80
2023-03-08T00:22:52.705Z,1.80
2023-03-08T00:27:56.730Z,1.90
2023-03-08T00:32:59.366Z,2.00
2023-03-08T00:38:02.009Z,2.00
2023-03-08T00:43:06.023Z,1.90
2023-03-08T00:48:08.868Z,1.80
2023-03-08T00:53:11.944Z,1.90
2023-03-08T00:58:16.231Z,2.00
2023-03-08T01:03:19.884Z,2.00
2023-03-08T01:08:24.604Z,1.90
2023-03-08T01:13:31.181Z,1.80
2023-03-08T01:18:33.888Z,1.80
2023-03-08T01:23:36.613Z,1.80
2023-03-08T01:28:40.818Z,1.80
2023-03-08T01:33:44.590Z,1.60
2023-03-08T01:38:48.042Z,1.70
2023-03-08T01:43:52.765Z,1.60
2023-03-08T01:49:02.283Z,1.60
2023-03-08T01:54:08.968Z,1.60
2023-03-08T01:59:13.421Z,1.50
2023-03-08T02:04:17.193Z,1.40
2023-03-08T02:09:20.671Z,1.30
2023-03-08T02:14:26.301Z,1.40
2023-03-08T02:19:34.923Z,1.60
2023-03-08T02:24:38.895Z,1.50
2023-03-08T02:29:43.544Z,1.40
2023-03-08T02:34:46.536Z,1.30
2023-03-08T02:39:50.666Z,1.40
2023-03-08T02:44:53.320Z,1.70
2023-03-08T02:49:55.966Z,1.70
2023-03-08T02:54:59.917Z,1.70
2023-03-08T03:00:02.616Z,1.80
2023-03-08T03:05:06.526Z,1.80
2023-03-08T03:10:22.638Z,1.70
2023-03-08T03:15:31.635Z,1.70
2023-03-08T03:20:40.642Z,1.70
2023-03-08T03:26:04.680Z,1.60
2023-03-08T03:32:02.485Z,1.60
2023-03-08T03:37:15.820Z,1.60
2023-03-08T03:42:29.864Z,1.80
2023-03-08T03:47:39.076Z,1.90
2023-03-08T03:52:47.075Z,1.80
2023-03-08T03:58:02.835Z,1.80
2023-03-08T04:03:08.008Z,1.90
2023-03-08T04:08:10.893Z,1.80
2023-03-08T04:13:22.102Z,1.70
2023-03-08T04:18:24.808Z,1.70
2023-03-08T04:23:31.346Z,1.70
2023-03-08T04:28:40.231Z,1.60
2023-03-08T04:33:45.689Z,1.60
2023-03-08T04:38:55.725Z,1.70
2023-03-08T04:44:15.182Z,1.70
2023-03-08T04:49:28.477Z,1.70
2023-03-08T04:54:41.043Z,1.80
2023-03-08T05:00:03.314Z,1.80
2023-03-08T05:05:25.960Z,1.80
2023-03-08T05:10:38.341Z,1.80
2023-03-08T05:15:42.426Z,2.00
2023-03-08T05:20:45.254Z,1.80
2023-03-08T05:25:47.906Z,1.90
2023-03-08T05:30:52.018Z,2.00
2023-03-08T05:35:55.240Z,2.00
2023-03-08T05:41:01.075Z,1.90
2023-03-08T05:46:08.130Z,1.90
2023-03-08T05:51:13.126Z,2.00
2023-03-08T05:56:17.728Z,1.80
2023-03-08T06:01:23.185Z,1.90
2023-03-08T06:06:27.857Z,1.80
2023-03-08T06:11:30.577Z,1.90
2023-03-08T06:16:34.609Z,2.00
2023-03-08T06:21:37.322Z,2.10
2023-03-08T06:26:40.150Z,2.20
2023-03-08T06:31:44.213Z,2.30
2023-03-08T06:36:46.889Z,2.60
2023-03-08T06:41:49.598Z,2.60
2023-03-08T06:46:53.665Z,2.80
2023-03-08T06:51:56.324Z,3.10
2023-03-08T06:56:59.118Z,3.30
2023-03-08T07:02:03.163Z,3.50
2023-03-08T07:07:08.002Z,3.80
2023-03-08T07:12:10.893Z,4.00
2023-03-08T07:17:14.911Z,4.30
2023-03-08T07:22:17.759Z,4.40
2023-03-08T07:27:20.431Z,4.50
2023-03-08T07:32:28.709Z,4.70
2023-03-08T07:37:31.474Z,4.70
2023-03-08T07:42:34.245Z,4.70
2023-03-08T07:47:38.317Z,4.90
2023-03-08T07:52:40.971Z,5.00
2023-03-08T07:57:43.603Z,5.30
2023-03-08T08:02:48.158Z,5.50
2023-03-08T08:07:52.208Z,5.60
2023-03-08T08:12:54.952Z,5.50
2023-03-08T08:17:58.993Z,5.50
2023-03-08T08:23:01.649Z,5.80
2023-03-08T08:28:04.293Z,6.20
2023-03-08T08:33:08.241Z,6.00
2023-03-08T08:38:11.047Z,6.00
2023-03-08T08:43:13.765Z,5.90
2023-03-08T08:48:18.217Z,6.10
2023-03-08T08:53:21.328Z,6.50
2023-03-08T08:58:23.997Z,6.30
2023-03-08T09:03:28.077Z,6.40
2023-03-08T09:08:30.742Z,6.20
2023-03-08T09:13:33.505Z,6.20
2023-03-08T09:18:37.557Z,6.00
2023-03-08T09:23:40.210Z,6.20
2023-03-08T09:28:43.061Z,5.90
2023-03-08T09:33:49.230Z,5.70
2023-03-08T09:38:53.942Z,6.00
2023-03-08T09:44:11.680Z,6.10
2023-03-08T09:49:19.731Z,6.00
2023-03-08T09:54:25.622Z,6.10
2023-03-08T09:59:35.672Z,6.30
2023-03-08T10:05:11.523Z,6.10
2023-03-08T10:10:24.963Z,5.90
2023-03-08T10:15:29.153Z,5.90
2023-03-08T10:20:37.534Z,6.10
2023-03-08T10:25:40.555Z,6.10
2023-03-08T10:30:46.623Z,6.20
2023-03-08T10:36:00.069Z,5.50
2023-03-08T10:41:05.270Z,5.50
2023-03-08T10:46:14.328Z,5.80
2023-03-08T10:51:20.816Z,5.60
2023-03-08T10:56:27.438Z,6.00
2023-03-08T11:01:32.190Z,6.30
2023-03-08T11:06:36.285Z,6.40
2023-03-08T11:11:43.022Z,6.50
2023-03-08T11:16:59.968Z,6.70
2023-03-08T11:22:16.519Z,6.90
2023-03-08T11:27:33.084Z,6.70
2023-03-08T11:32:50.958Z,6.40
2023-03-08T11:38:03.492Z,6.40
2023-03-08T11:43:21.823Z,6.80
2023-03-08T11:48:43.538Z,7.10
2023-03-08T11:53:57.902Z,6.60
2023-03-08T11:59:05.862Z,6.60
2023-03-08T12:04:13.264Z,6.60
2023-03-08T12:09:24.201Z,6.40
2023-03-08T12:14:31.160Z,6.40
2023-03-08T12:19:41.591Z,6.30
2023-03-08T12:24:51.683Z,6.10
2023-03-08T12:29:59.316Z,6.00
2023-03-08T12:35:06.421Z,5.80
2023-03-08T12:40:36.106Z,5.90
2023-03-08T12:45:39.850Z,5.60
2023-03-08T12:50:45.951Z,5.50
2023-03-08T12:56:01.148Z,5.40
2023-03-08T13:01:07.190Z,5.50
2023-03-08T13:06:31.672Z,5.60
2023-03-08T13:11:44.283Z,5.50
2023-03-08T13:16:47.003Z,5.40
2023-03-08T13:21:54.560Z,5.20
2023-03-08T13:27:22.385Z,5.20
2023-03-08T13:32:25.575Z,5.30
2023-03-08T13:37:30.184Z,5.40
2023-03-08T13:42:34.538Z,5.60
2023-03-08T13:47:40.911Z,5.60
2023-03-08T13:52:43.730Z,5.90
2023-03-08T13:57:51.921Z,5.80
2023-03-08T14:02:55.366Z,5.50
2023-03-08T14:08:00.212Z,5.50
2023-03-08T14:13:05.407Z,5.40
2023-03-08T14:18:10.952Z,5.50
2023-03-08T14:23:26.695Z,5.80
2023-03-08T14:28:41.170Z,5.60
2023-03-08T14:33:44.704Z,5.60
2023-03-08T14:38:50.425Z,5.50
2023-03-08T14:43:54.439Z,5.50
2023-03-08T14:49:00.042Z,5.60
2023-03-08T14:54:05.709Z,5.70
2023-03-08T14:59:18.684Z,5.70
2023-03-08T15:04:29.415Z,5.60
2023-03-08T15:09:32.674Z,5.60
2023-03-08T15:14:36.738Z,5.70
2023-03-08T15:19:39.400Z,5.70
2023-03-08T15:24:42.168Z,5.80
2023-03-08T15:29:46.172Z,5.90
2023-03-08T15:34:48.943Z,6.00
2023-03-08T15:39:51.719Z,5.90
2023-03-08T15:44:55.679Z,5.70
2023-03-08T15:49:58.385Z,5.50
2023-03-08T15:55:01.045Z,5.40
2023-03-08T16:00:07.764Z,5.40
2023-03-08T16:05:12.368Z,5.30
2023-03-08T16:10:17.625Z,5.40
2023-03-08T16:15:21.982Z,5.30
2023-03-08T16:20:25.862Z,5.20
2023-03-08T16:25:28.681Z,5.20
2023-03-08T16:30:33.388Z,5.10
2023-03-08T16:35:36.101Z,5.10
2023-03-08T16:40:39.758Z,5.10
2023-03-08T16:45:55.239Z,5.10
2023-03-08T16:50:59.531Z,5.10
2023-03-08T16:56:02.351Z,5.00
2023-03-08T17:01:12.921Z,5.00
2023-03-08T17:06:19.662Z,4.90
2023-03-08T17:11:24.521Z,4.80
2023-03-08T17:16:43.684Z,4.70
2023-03-08T17:22:00.058Z,4.60
2023-03-08T17:46:44.086Z,4.50
2023-03-08T17:51:53.266Z,4.50
2023-03-08T17:57:06.303Z,4.50
2023-03-08T18:02:59.254Z,4.60
2023-03-08T18:08:55.518Z,4.50
2023-03-08T18:14:18.613Z,4.50
2023-03-08T18:43:58.862Z,4.60
2023-03-08T18:49:03.676Z,4.60
2023-03-08T18:54:08.863Z,4.60
2023-03-08T18:59:14.847Z,4.60
2023-03-08T19:04:18.758Z,4.70
2023-03-08T19:09:24.984Z,4.50
2023-03-08T19:14:38.425Z,4.60
2023-03-08T19:19:42.292Z,4.60
2023-03-08T19:24:49.471Z,4.60
2023-03-08T19:29:55.733Z,4.50
2023-03-08T19:34:58.757Z,4.40
2023-03-08T19:40:02.321Z,4.30
2023-03-08T19:45:10.516Z,4.30
2023-03-08T19:50:14.325Z,4.20
2023-03-08T19:55:17.950Z,4.30
2023-03-08T20:00:23.476Z,4.30
2023-03-08T20:05:28.385Z,4.30
2023-03-08T20:10:32.756Z,4.20
2023-03-08T20:15:38.628Z,4.30
2023-03-08T20:20:41.763Z,4.20
2023-03-08T20:25:45.193Z,4.40
2023-03-08T20:30:50.930Z,4.50
2023-03-08T20:42:39.404Z,4.40
2023-03-08T22:11:45.812Z,4.40
2023-03-08T22:41:17.506Z,4.30
2023-03-08T22:46:23.144Z,4.30
2023-03-08T22:51:27.666Z,4.40
2023-03-08T22:56:31.011Z,4.30
2023-03-08T23:01:35.109Z,4.30
2023-03-08T23:06:37.878Z,4.30
2023-03-08T23:11:41.755Z,4.40
2023-03-08T23:16:47.120Z,4.30
2023-03-08T23:21:50.138Z,4.20
2023-03-08T23:26:54.169Z,4.30
2023-03-08T23:31:58.469Z,4.30
2023-03-08T23:37:04.118Z,4.30
2023-03-08T23:42:07.373Z,4.30
2023-03-08T23:47:11.359Z,4.40
2023-03-08T23:52:14.175Z,4.40
2023-03-08T23:57:16.857Z,4.50
